Time;durP1;ratioP1;P1;durP2;ratioP2;P2;SDS_P1;SDS_P2;PMS_P1;PMS_P2;Temp;Humidity;BMP_temperature;BMP_pressure;BME280_temperature;BME280_humidity;BME280_pressure;Samples;Min_cycle;Max_cycle;Signal;HPM_P1;HPM_P2
2022/04/02 00:00:06;;;;;;;2.80;1.00;;;2.80;99.70;;;;;;5015168;28;20111;-82
2022/04/02 00:02:32;;;;;;;2.58;0.80;;;2.60;99.80;;;;;;5013110;28;20474;-82
2022/04/02 00:04:58;;;;;;;2.83;0.77;;;3.70;99.90;;;;;;5014564;28;20046;-81
2022/04/02 00:07:23;;;;;;;2.63;1.00;;;2.30;99.90;;;;;;5014255;28;20124;-82
2022/04/02 00:09:49;;;;;;;2.08;0.80;;;2.50;99.90;;;;;;5013447;28;20049;-82
2022/04/02 00:12:15;;;;;;;1.88;0.70;;;2.50;99.90;;;;;;5013277;28;20429;-82
2022/04/02 00:14:41;;;;;;;1.30;0.70;;;2.50;99.90;;;;;;5013348;28;20050;-82
2022/04/02 00:17:07;;;;;;;2.00;0.80;;;2.50;99.90;;;;;;5013290;28;20041;-82
2022/04/02 00:19:33;;;;;;;1.55;0.80;;;2.50;99.90;;;;;;5013596;28;20136;-82
2022/04/02 00:21:58;;;;;;;2.13;0.95;;;2.30;99.90;;;;;;5017368;28;20077;-82
2022/04/02 00:24:24;;;;;;;2.60;0.90;;;2.40;99.90;;;;;;5017613;28;20053;-82
2022/04/02 00:26:50;;;;;;;3.40;1.10;;;2.60;99.90;;;;;;5015941;28;20045;-82
2022/04/02 00:29:15;;;;;;;1.55;0.93;;;2.50;99.90;;;;;;5015941;28;20133;-82
2022/04/02 00:31:41;;;;;;;1.52;0.60;;;2.70;99.90;;;;;;5013380;28;20046;-82
2022/04/02 00:34:08;;;;;;;2.25;0.80;;;2.30;99.90;;;;;;5013179;28;20042;-82
2022/04/02 00:36:37;;;;;;;1.33;0.70;;;2.10;99.90;;;;;;5013709;28;20065;-82
2022/04/02 00:39:07;;;;;;;2.08;0.90;;;2.20;99.90;;;;;;5012923;28;20107;-82
2022/04/02 00:41:33;;;;;;;1.60;0.77;;;2.20;99.90;;;;;;5013118;28;20095;-82
2022/04/02 00:44:00;;;;;;;2.05;0.73;;;2.10;99.90;;;;;;5014653;28;20054;-82
2022/04/02 00:46:26;;;;;;;1.63;0.73;;;2.10;99.90;;;;;;5013655;28;20042;-82
2022/04/02 00:48:52;;;;;;;1.38;0.70;;;3.00;99.90;;;;;;5013958;28;20048;-82
2022/04/02 00:51:18;;;;;;;2.42;1.02;;;2.10;99.90;;;;;;5012698;28;20046;-81
2022/04/02 00:53:47;;;;;;;2.00;0.88;;;2.30;99.90;;;;;;5013909;28;20128;-81
2022/04/02 00:56:14;;;;;;;2.45;0.80;;;2.50;99.90;;;;;;5013800;28;20457;-82
2022/04/02 00:58:40;;;;;;;2.28;0.90;;;3.00;99.90;;;;;;5012709;28;20065;-82
2022/04/02 01:01:06;;;;;;;2.00;1.00;;;1.90;99.90;;;;;;5013243;28;20054;-82
2022/04/02 01:03:34;;;;;;;2.28;0.80;;;3.30;99.90;;;;;;5014718;28;20041;-82
2022/04/02 01:05:59;;;;;;;3.78;1.17;;;1.80;99.90;;;;;;5012617;28;20058;-82
2022/04/02 01:08:25;;;;;;;2.25;0.80;;;1.90;99.90;;;;;;5013247;28;20057;-82
2022/04/02 01:10:54;;;;;;;2.15;0.90;;;2.80;99.90;;;;;;5012842;28;20042;-82
2022/04/02 01:13:20;;;;;;;5.50;1.27;;;1.90;99.90;;;;;;5014280;28;20041;-82
2022/04/02 01:15:46;;;;;;;2.58;0.80;;;2.00;99.90;;;;;;5013730;28;20136;-82
2022/04/02 01:18:11;;;;;;;1.45;0.73;;;1.90;99.90;;;;;;5013279;28;20049;-82
2022/04/02 01:20:37;;;;;;;2.70;1.10;;;1.90;99.90;;;;;;5013116;28;20137;-82
2022/04/02 01:23:03;;;;;;;1.98;1.00;;;1.90;99.90;;;;;;5013712;28;20050;-82
2022/04/02 01:25:32;;;;;;;2.53;0.90;;;1.90;99.90;;;;;;5012694;28;20093;-82
2022/04/02 01:27:59;;;;;;;2.28;1.00;;;2.10;99.90;;;;;;5013955;28;20096;-82
2022/04/02 01:30:26;;;;;;;3.47;1.20;;;3.50;99.90;;;;;;5013615;28;20050;-82
2022/04/02 01:32:52;;;;;;;3.15;1.17;;;2.00;99.90;;;;;;4996601;28;20057;-82
2022/04/02 01:35:21;;;;;;;1.77;0.93;;;2.40;99.90;;;;;;5013610;28;20056;-82
2022/04/02 01:37:47;;;;;;;3.78;1.20;;;1.90;99.90;;;;;;5012262;28;20160;-82
2022/04/02 01:40:12;;;;;;;1.52;0.80;;;2.40;99.90;;;;;;5012550;28;20075;-82
2022/04/02 01:42:38;;;;;;;4.03;1.00;;;1.80;99.90;;;;;;4996073;28;20057;-82
2022/04/02 01:45:04;;;;;;;1.40;0.90;;;1.80;99.90;;;;;;5012268;28;20045;-82
2022/04/02 01:47:30;;;;;;;1.40;0.80;;;1.80;99.90;;;;;;5012538;28;20061;-82
2022/04/02 01:49:56;;;;;;;4.25;1.20;;;1.80;99.90;;;;;;5012764;28;20378;-83
2022/04/02 01:52:22;;;;;;;2.45;0.90;;;1.80;99.90;;;;;;5013693;28;20045;-82
2022/04/02 01:54:48;;;;;;;1.90;0.90;;;2.30;99.90;;;;;;5012265;28;20096;-82
2022/04/02 01:57:15;;;;;;;1.42;0.70;;;1.80;99.90;;;;;;4997067;28;20064;-83
2022/04/02 01:59:44;;;;;;;2.03;0.70;;;1.90;99.90;;;;;;5015980;28;20118;-82
2022/04/02 02:02:11;;;;;;;2.53;0.85;;;1.80;99.90;;;;;;5016917;28;20050;-82
2022/04/02 02:04:37;;;;;;;3.85;0.85;;;1.80;99.90;;;;;;5015948;28;20060;-82
2022/04/02 02:07:04;;;;;;;3.78;0.90;;;1.50;99.90;;;;;;5015908;28;20050;-82
2022/04/02 02:09:30;;;;;;;1.35;0.85;;;1.80;99.90;;;;;;5016723;28;20100;-82
2022/04/02 02:11:56;;;;;;;2.00;0.80;;;2.50;99.90;;;;;;5015635;28;20081;-82
2022/04/02 02:14:22;;;;;;;2.80;0.90;;;1.90;99.90;;;;;;5015469;28;20045;-82
2022/04/02 02:16:48;;;;;;;2.88;0.90;;;1.80;99.90;;;;;;5015556;28;20050;-82
2022/04/02 02:19:14;;;;;;;2.83;1.10;;;1.90;99.90;;;;;;5016478;28;20057;-82
2022/04/02 02:21:40;;;;;;;3.88;0.80;;;2.10;99.90;;;;;;5015246;28;20046;-82
2022/04/02 02:24:06;;;;;;;2.80;0.93;;;1.70;99.90;;;;;;5015459;28;20038;-82
2022/04/02 02:26:32;;;;;;;3.20;0.90;;;1.70;99.90;;;;;;5015209;28;20501;-82
2022/04/02 02:28:58;;;;;;;2.92;0.88;;;2.30;99.90;;;;;;5015495;28;20454;-81
2022/04/02 02:31:24;;;;;;;2.15;1.10;;;2.60;99.90;;;;;;5015155;28;20116;-82
2022/04/02 02:36:34;;;;;;;1.88;0.85;;;1.70;99.90;;;;;;5015696;28;20492;-82
2022/04/02 02:39:00;;;;;;;2.42;0.80;;;3.80;99.90;;;;;;4983537;28;20049;-82
2022/04/02 02:41:25;;;;;;;2.42;0.80;;;2.30;99.90;;;;;;5015771;28;20041;-82
2022/04/02 02:43:51;;;;;;;3.35;1.00;;;1.70;99.90;;;;;;5016363;28;20458;-82
2022/04/02 02:46:17;;;;;;;2.83;0.80;;;1.20;99.90;;;;;;4982724;28;20060;-81
2022/04/02 02:48:47;;;;;;;2.40;0.88;;;1.70;99.90;;;;;;4982644;28;20057;-82
2022/04/02 02:51:13;;;;;;;1.88;1.00;;;1.60;99.90;;;;;;5016101;28;20571;-82
2022/04/02 02:53:39;;;;;;;1.95;0.75;;;1.10;99.90;;;;;;5014938;28;20431;-82
2022/04/02 02:56:06;;;;;;;1.70;0.90;;;1.70;99.90;;;;;;5014553;28;20394;-82
2022/04/02 02:58:32;;;;;;;2.40;0.95;;;1.60;99.90;;;;;;5015098;28;20133;-82
2022/04/02 03:00:59;;;;;;;2.22;1.00;;;1.60;99.90;;;;;;5015656;28;20460;-81
2022/04/02 03:03:25;;;;;;;2.28;0.93;;;2.30;99.90;;;;;;5014639;28;20054;-82
2022/04/02 03:05:51;;;;;;;1.60;0.90;;;2.10;99.90;;;;;;4998594;28;20041;-82
2022/04/02 03:08:16;;;;;;;4.10;0.80;;;1.10;99.90;;;;;;5014246;28;20042;-82
2022/04/02 03:10:43;;;;;;;1.65;0.80;;;1.40;99.90;;;;;;5014445;28;20050;-82
2022/04/02 03:13:08;;;;;;;2.78;0.82;;;1.60;99.90;;;;;;5014165;28;20470;-82
2022/04/02 03:15:35;;;;;;;3.70;0.80;;;1.60;99.90;;;;;;5014973;28;20042;-82
2022/04/02 03:18:06;;;;;;;4.00;0.95;;;1.30;99.90;;;;;;5015362;28;20085;-82
2022/04/02 03:20:32;;;;;;;2.92;0.90;;;1.30;99.90;;;;;;5014339;28;20457;-82
2022/04/02 03:22:58;;;;;;;1.05;0.70;;;1.70;99.90;;;;;;5014254;28;20477;-81
2022/04/02 03:25:24;;;;;;;2.10;1.10;;;2.60;99.90;;;;;;5014805;28;20053;-81
2022/04/02 03:27:50;;;;;;;1.58;0.80;;;2.90;99.90;;;;;;5015240;28;20042;-82
2022/04/02 03:30:18;;;;;;;3.55;0.80;;;1.80;99.90;;;;;;5014928;28;20377;-82
2022/04/02 03:32:44;;;;;;;2.78;0.90;;;1.40;99.90;;;;;;5015049;28;20057;-82
2022/04/02 03:35:17;;;;;;;1.70;0.77;;;1.40;99.90;;;;;;5013884;28;20089;-82
2022/04/02 03:37:45;;;;;;;2.17;0.90;;;1.30;99.90;;;;;;4999381;28;20054;-82
2022/04/02 03:40:17;;;;;;;2.55;0.80;;;1.30;99.90;;;;;;5014640;28;20585;-82
2022/04/02 03:42:44;;;;;;;2.80;1.00;;;1.50;99.90;;;;;;5013794;28;20041;-82
2022/04/02 03:45:12;;;;;;;3.90;1.00;;;1.10;99.90;;;;;;5014819;28;20050;-82
2022/04/02 03:47:38;;;;;;;3.40;1.00;;;1.50;99.90;;;;;;5014779;28;20038;-82
2022/04/02 03:50:05;;;;;;;1.83;0.80;;;1.50;99.90;;;;;;4997885;28;20042;-82
2022/04/02 03:52:31;;;;;;;2.83;0.90;;;1.50;99.90;;;;;;5013655;28;20396;-82
2022/04/02 03:54:56;;;;;;;4.22;0.80;;;1.70;99.90;;;;;;4997294;28;20128;-81
2022/04/02 03:57:22;;;;;;;2.97;1.00;;;1.70;99.90;;;;;;5013053;28;20393;-82
2022/04/02 03:59:48;;;;;;;1.92;1.20;;;3.00;99.90;;;;;;5013279;28;20062;-82
2022/04/02 04:02:14;;;;;;;2.90;0.85;;;1.50;99.90;;;;;;4996957;28;20397;-82
2022/04/02 04:04:40;;;;;;;3.53;0.85;;;1.20;99.90;;;;;;5014977;28;20125;-83
2022/04/02 04:07:07;;;;;;;2.45;0.90;;;1.80;99.90;;;;;;4997164;28;20559;-82
2022/04/02 04:09:33;;;;;;;2.63;0.80;;;1.70;99.90;;;;;;5014432;28;20045;-82
2022/04/02 04:12:00;;;;;;;3.50;0.80;;;2.80;99.90;;;;;;5014903;28;20137;-82
2022/04/02 04:14:26;;;;;;;4.05;1.20;;;1.10;99.90;;;;;;5013161;28;20046;-82
2022/04/02 04:16:54;;;;;;;2.78;0.95;;;2.90;99.90;;;;;;5013792;28;20504;-80
2022/04/02 04:19:21;;;;;;;2.33;0.90;;;1.10;99.90;;;;;;5013982;28;20054;-82
2022/04/02 04:21:47;;;;;;;2.63;0.77;;;3.40;99.90;;;;;;4997641;28;20046;-82
2022/04/02 04:24:14;;;;;;;4.72;0.88;;;1.50;99.90;;;;;;5013876;28;20120;-82
2022/04/02 04:26:40;;;;;;;2.95;0.80;;;1.40;99.90;;;;;;5013369;28;20054;-82
2022/04/02 04:29:06;;;;;;;4.43;0.93;;;1.60;99.90;;;;;;5014646;28;20377;-82
2022/04/02 04:31:33;;;;;;;5.22;0.90;;;1.50;99.90;;;;;;5013442;28;20048;-82
2022/04/02 04:33:58;;;;;;;2.70;0.90;;;2.20;99.90;;;;;;5013157;28;20176;-82
2022/04/02 04:36:24;;;;;;;3.20;0.95;;;2.20;99.90;;;;;;5013824;28;20458;-81
2022/04/02 04:38:51;;;;;;;1.52;0.80;;;1.70;99.90;;;;;;4996459;28;20096;-82
2022/04/02 04:41:18;;;;;;;1.60;0.82;;;1.50;99.90;;;;;;5014733;28;20100;-81
2022/04/02 04:43:48;;;;;;;3.60;0.93;;;1.70;99.90;;;;;;4996484;28;20525;-81
2022/04/02 04:46:17;;;;;;;2.85;0.98;;;1.50;99.90;;;;;;5012923;28;20112;-82
2022/04/02 04:48:44;;;;;;;3.38;1.30;;;1.60;99.90;;;;;;5012615;28;20129;-81
2022/04/02 04:51:11;;;;;;;2.75;1.10;;;2.40;99.90;;;;;;5012642;28;20101;-82
2022/04/02 04:53:37;;;;;;;3.00;0.93;;;1.50;99.90;;;;;;4996353;28;20493;-81
2022/04/02 04:56:03;;;;;;;2.95;0.90;;;1.60;99.90;;;;;;5012995;28;20057;-82
2022/04/02 04:58:29;;;;;;;2.97;1.00;;;1.60;99.90;;;;;;5012116;28;20564;-82
2022/04/02 05:00:58;;;;;;;4.30;1.10;;;1.60;99.90;;;;;;4996807;28;20132;-81
2022/04/02 05:03:25;;;;;;;4.20;1.02;;;2.90;99.90;;;;;;5012573;28;20453;-82
2022/04/02 05:05:55;;;;;;;2.92;1.00;;;2.60;99.90;;;;;;4980416;28;20049;-82
2022/04/02 05:08:21;;;;;;;2.38;0.90;;;1.40;99.90;;;;;;5013801;28;20049;-82
2022/04/02 05:10:47;;;;;;;2.15;0.90;;;1.60;99.90;;;;;;5014057;28;20418;-82
2022/04/02 05:13:14;;;;;;;3.05;1.10;;;2.60;99.90;;;;;;5012430;28;20056;-81
2022/04/02 05:15:46;;;;;;;2.42;1.08;;;1.80;99.90;;;;;;5014163;28;20046;-81
2022/04/02 05:18:13;;;;;;;1.48;1.00;;;1.60;99.90;;;;;;5012424;28;20038;-82
2022/04/02 05:20:40;;;;;;;3.05;1.13;;;1.30;99.90;;;;;;4996074;28;20053;-81
2022/04/02 05:23:06;;;;;;;3.42;0.98;;;1.90;99.90;;;;;;5012445;28;20085;-81
2022/04/02 05:25:34;;;;;;;2.00;1.00;;;1.50;99.90;;;;;;4996230;28;20053;-81
2022/04/02 05:28:04;;;;;;;5.47;1.35;;;2.80;99.90;;;;;;5013374;28;20045;-82
2022/04/02 05:30:31;;;;;;;2.40;1.00;;;2.80;99.90;;;;;;5012945;28;20053;-82
2022/04/02 05:32:57;;;;;;;3.30;1.30;;;1.90;99.90;;;;;;4982058;28;20065;-81
2022/04/02 05:35:22;;;;;;;4.82;2.58;;;1.50;99.90;;;;;;4999714;28;20053;-81
2022/04/02 05:37:49;;;;;;;5.13;2.05;;;1.50;99.90;;;;;;5016190;28;20045;-82
2022/04/02 05:40:15;;;;;;;4.53;1.60;;;1.40;99.90;;;;;;5017208;28;20045;-80
2022/04/02 05:42:42;;;;;;;3.92;1.80;;;1.70;99.90;;;;;;5016174;28;20128;-82
2022/04/02 05:45:08;;;;;;;3.53;1.30;;;1.90;99.90;;;;;;5016149;28;20053;-79
2022/04/02 05:47:49;;;;;;;3.05;1.10;;;1.40;99.90;;;;;;5016742;28;20504;-82
2022/04/02 05:50:16;;;;;;;2.97;0.90;;;1.90;99.90;;;;;;5016831;28;20041;-82
2022/04/02 05:52:42;;;;;;;2.13;0.90;;;1.30;99.90;;;;;;5017419;28;20050;-82
2022/04/02 05:55:10;;;;;;;2.28;1.00;;;1.00;99.90;;;;;;4999590;28;20052;-79
2022/04/02 05:57:37;;;;;;;2.65;1.08;;;1.40;99.90;;;;;;5015918;28;20397;-82
2022/04/02 06:00:06;;;;;;;2.22;1.00;;;1.40;99.90;;;;;;5016727;28;20062;-82
2022/04/02 06:02:32;;;;;;;4.05;1.60;;;1.40;99.90;;;;;;5000363;28;20077;-81
2022/04/02 06:04:57;;;;;;;3.58;1.35;;;1.30;99.90;;;;;;5016581;28;20050;-81
2022/04/02 06:07:23;;;;;;;4.50;1.20;;;1.50;99.90;;;;;;5017985;28;20130;-81
2022/04/02 06:09:49;;;;;;;5.07;1.67;;;1.40;99.90;;;;;;5016565;28;20056;-80
2022/04/02 06:12:15;;;;;;;3.25;1.17;;;1.80;99.90;;;;;;5016252;28;20545;-79
2022/04/02 06:14:41;;;;;;;3.78;1.42;;;1.20;99.90;;;;;;5016538;28;20048;-79
2022/04/02 06:17:06;;;;;;;3.10;1.20;;;1.10;99.90;;;;;;5015382;28;20071;-79
2022/04/02 06:19:32;;;;;;;4.13;1.27;;;1.50;99.90;;;;;;4983771;28;20053;-80
2022/04/02 06:21:58;;;;;;;3.60;1.10;;;1.60;99.90;;;;;;4998855;28;20120;-81
2022/04/02 06:24:23;;;;;;;3.72;1.05;;;1.70;99.90;;;;;;5016426;28;20046;-78
2022/04/02 06:26:49;;;;;;;4.20;1.65;;;1.70;99.90;;;;;;5015093;28;20054;-80
2022/04/02 06:29:15;;;;;;;4.00;1.00;;;2.40;99.90;;;;;;5015395;28;20104;-79
2022/04/02 06:31:40;;;;;;;2.97;1.25;;;1.90;99.90;;;;;;5015170;28;20075;-81
2022/04/02 06:34:06;;;;;;;2.33;1.25;;;2.30;99.90;;;;;;5014953;28;20041;-81
2022/04/02 06:36:32;;;;;;;5.47;1.25;;;2.00;99.90;;;;;;5015885;28;20064;-81
2022/04/02 06:38:58;;;;;;;2.80;1.23;;;2.10;99.90;;;;;;4998840;28;20045;-81
2022/04/02 06:41:23;;;;;;;3.28;1.00;;;2.50;99.90;;;;;;5016363;28;20125;-81
2022/04/02 06:43:49;;;;;;;3.67;1.20;;;3.60;99.90;;;;;;4998648;28;20371;-82
2022/04/02 06:46:15;;;;;;;2.60;1.00;;;2.30;99.90;;;;;;4998390;28;20402;-81
2022/04/02 06:48:40;;;;;;;4.00;1.08;;;2.40;99.90;;;;;;5015886;28;20042;-81
2022/04/02 06:51:07;;;;;;;2.10;1.25;;;2.70;99.90;;;;;;5015747;28;20544;-81
2022/04/02 06:53:34;;;;;;;2.35;0.80;;;3.10;99.90;;;;;;4998890;28;20397;-82
2022/04/02 06:56:00;;;;;;;5.63;0.95;;;2.70;99.90;;;;;;5014457;28;20482;-82
2022/04/02 06:58:32;;;;;;;2.63;0.77;;;3.20;99.90;;;;;;5014221;28;20077;-82
2022/04/02 07:00:58;;;;;;;3.22;0.95;;;2.80;99.90;;;;;;5014646;28;20060;-81
2022/04/02 07:03:24;;;;;;;4.03;0.88;;;3.70;99.90;;;;;;5015842;28;20132;-82
2022/04/02 07:05:50;;;;;;;4.82;0.90;;;3.20;99.90;;;;;;4999079;28;20402;-83
2022/04/02 07:08:16;;;;;;;3.20;1.23;;;3.10;99.90;;;;;;4998453;28;20484;-81
2022/04/02 07:10:42;;;;;;;1.85;1.00;;;4.00;99.90;;;;;;5014198;28;20105;-83
2022/04/02 07:13:07;;;;;;;2.42;1.38;;;3.20;99.90;;;;;;5014527;28;20046;-83
2022/04/02 07:15:33;;;;;;;3.33;0.90;;;3.30;99.90;;;;;;4998437;28;20057;-82
2022/04/02 07:18:10;;;;;;;2.58;0.80;;;3.40;99.90;;;;;;5014269;28;20054;-83
2022/04/02 07:20:37;;;;;;;1.77;0.95;;;4.00;99.90;;;;;;5014657;28;20469;-83
2022/04/02 07:23:04;;;;;;;1.55;0.75;;;3.50;99.90;;;;;;5014237;28;20049;-82
2022/04/02 07:25:31;;;;;;;2.65;0.80;;;3.50;99.90;;;;;;5015093;28;20042;-83
2022/04/02 07:27:57;;;;;;;2.50;0.90;;;3.90;99.90;;;;;;5013875;28;20041;-82
2022/04/02 07:30:26;;;;;;;2.65;0.90;;;3.70;99.90;;;;;;5015200;28;20053;-82
2022/04/02 07:32:52;;;;;;;2.75;0.88;;;3.70;99.90;;;;;;5013778;28;20053;-82
2022/04/02 07:35:19;;;;;;;1.48;0.82;;;3.80;99.90;;;;;;4997847;28;20041;-83
2022/04/02 07:37:58;;;;;;;1.42;0.80;;;3.80;99.90;;;;;;5013792;28;20401;-84
2022/04/02 07:40:28;;;;;;;2.40;0.90;;;3.90;99.90;;;;;;4997780;28;20548;-82
2022/04/02 07:43:02;;;;;;;4.70;1.10;;;4.10;99.90;;;;;;5015323;28;20073;-82
2022/04/02 07:45:32;;;;;;;1.65;0.70;;;4.50;99.90;;;;;;5015129;28;20056;-82
2022/04/02 07:47:58;;;;;;;2.53;1.00;;;4.00;99.90;;;;;;5015767;28;20124;-81
2022/04/02 07:50:27;;;;;;;2.03;0.85;;;4.00;99.90;;;;;;5014827;28;20057;-81
2022/04/02 07:52:55;;;;;;;1.73;0.95;;;4.10;99.90;;;;;;5014881;28;20116;-82
2022/04/02 07:55:22;;;;;;;4.40;0.82;;;4.60;99.90;;;;;;5014109;28;20100;-79
2022/04/02 07:57:50;;;;;;;2.35;0.80;;;4.50;99.90;;;;;;5015403;28;20046;-74
2022/04/02 08:00:21;;;;;;;2.13;0.85;;;4.10;99.90;;;;;;5013425;28;20064;-78
2022/04/02 08:02:48;;;;;;;2.20;0.98;;;4.10;99.90;;;;;;5014601;28;20053;-81
2022/04/02 08:05:19;;;;;;;2.67;1.10;;;3.70;99.90;;;;;;5014711;28;20096;-81
2022/04/02 08:07:49;;;;;;;2.05;0.80;;;4.20;99.90;;;;;;5014287;28;20502;-80
2022/04/02 08:10:17;;;;;;;2.33;0.70;;;4.10;99.90;;;;;;5015855;28;20045;-84
2022/04/02 08:12:43;;;;;;;1.70;0.70;;;4.70;99.90;;;;;;5017177;28;20061;-82
2022/04/02 08:15:11;;;;;;;2.60;0.80;;;4.20;99.90;;;;;;5022009;28;20045;-80
2022/04/02 08:17:39;;;;;;;2.50;1.38;;;4.40;99.90;;;;;;5021181;28;20038;-79
2022/04/02 08:20:06;;;;;;;2.03;0.70;;;4.70;99.90;;;;;;5017573;28;20361;-82
2022/04/02 08:22:32;;;;;;;3.92;0.80;;;4.40;99.90;;;;;;5014844;28;20050;-75
2022/04/02 08:24:58;;;;;;;2.67;0.80;;;5.70;99.90;;;;;;5014663;28;20053;-78
2022/04/02 08:27:39;;;;;;;2.53;0.70;;;5.10;99.90;;;;;;5015037;28;20125;-76
2022/04/02 08:30:10;;;;;;;3.03;0.70;;;4.70;99.90;;;;;;5013721;28;20042;-80
2022/04/02 08:32:42;;;;;;;2.10;0.50;;;4.70;99.90;;;;;;5014284;28;20112;-77
2022/04/02 08:35:12;;;;;;;1.67;0.55;;;4.70;99.90;;;;;;5014406;28;20085;-78
2022/04/02 08:37:37;;;;;;;0.88;0.45;;;4.90;99.90;;;;;;4997116;28;20045;-77
2022/04/02 08:40:22;;;;;;;0.90;0.50;;;4.80;99.90;;;;;;5014789;28;20053;-79
2022/04/02 08:43:21;;;;;;;1.10;0.50;;;4.90;99.90;;;;;;5014136;28;20042;-84
2022/04/02 08:45:57;;;;;;;1.17;0.50;;;5.00;99.90;;;;;;5012918;28;20401;-88
2022/04/02 08:48:26;;;;;;;1.50;0.60;;;4.90;99.90;;;;;;5014124;28;20037;-80
2022/04/02 08:51:29;;;;;;;1.83;0.50;;;4.80;99.90;;;;;;5013970;28;20045;-82
2022/04/02 08:54:10;;;;;;;0.90;0.50;;;4.80;99.90;;;;;;5012958;28;20108;-83
2022/04/02 08:56:43;;;;;;;2.60;0.60;;;5.20;99.90;;;;;;5013928;28;20053;-78
2022/04/02 08:59:13;;;;;;;1.85;0.50;;;4.80;99.90;;;;;;5013649;28;20064;-82
2022/04/02 09:02:18;;;;;;;2.75;0.60;;;4.80;99.90;;;;;;5014000;28;20054;-82
2022/04/02 09:05:10;;;;;;;2.17;0.40;;;4.80;99.90;;;;;;5013232;28;20494;-80
2022/04/02 09:07:47;;;;;;;1.05;0.65;;;4.70;99.90;;;;;;5016465;28;20096;-78
2022/04/02 09:10:40;;;;;;;1.48;0.40;;;4.60;99.90;;;;;;5015993;28;20046;-80
2022/04/02 09:13:31;;;;;;;1.77;0.60;;;4.60;99.90;;;;;;5016098;28;20050;-80
2022/04/02 09:16:05;;;;;;;0.93;0.40;;;4.50;99.90;;;;;;5000014;28;20057;-79
2022/04/02 09:18:38;;;;;;;1.42;0.82;;;4.60;99.90;;;;;;5017358;28;20567;-79
2022/04/02 09:21:28;;;;;;;0.70;0.50;;;4.70;99.90;;;;;;5015506;28;20046;-79
2022/04/02 09:24:31;;;;;;;1.33;0.45;;;4.80;99.90;;;;;;5017044;28;20434;-79
2022/04/02 09:27:22;;;;;;;2.40;0.43;;;4.80;99.90;;;;;;5016880;28;20053;-81
2022/04/02 09:30:15;;;;;;;0.80;0.40;;;4.80;99.90;;;;;;5016818;28;20097;-82
2022/04/02 09:33:13;;;;;;;1.73;0.43;;;5.20;99.90;;;;;;5016287;28;20057;-82
2022/04/02 09:35:57;;;;;;;1.30;0.50;;;4.70;99.90;;;;;;5017173;28;20061;-80
2022/04/02 09:38:32;;;;;;;;;;;6.10;99.90;;;;;;5017014;28;20041;-81
2022/04/02 09:41:24;;;;;;;2.97;1.30;;;4.90;99.90;;;;;;5017405;28;20265;-83
2022/04/02 09:44:11;;;;;;;1.55;0.60;;;4.80;99.90;;;;;;5016551;28;20104;-78
2022/04/02 09:46:37;;;;;;;0.82;0.57;;;5.00;99.90;;;;;;5016195;28;20049;-77
2022/04/02 09:49:32;;;;;;;2.60;0.50;;;5.00;99.90;;;;;;5014658;28;20112;-81
2022/04/02 09:52:04;;;;;;;2.42;0.55;;;5.00;99.90;;;;;;5016545;28;20108;-78
2022/04/02 09:54:53;;;;;;;1.02;0.50;;;5.00;99.90;;;;;;5016557;28;20045;-77
2022/04/02 09:57:22;;;;;;;2.88;0.77;;;5.10;99.90;;;;;;5016338;28;20057;-82
2022/04/02 10:00:04;;;;;;;1.25;0.50;;;5.00;99.90;;;;;;5014550;28;20064;-79
2022/04/02 10:03:00;;;;;;;1.42;0.73;;;4.90;99.90;;;;;;5015471;28;20386;-82
2022/04/02 10:06:16;;;;;;;1.92;0.45;;;4.90;99.90;;;;;;5015032;28;20430;-82
2022/04/02 10:09:03;;;;;;;1.15;0.50;;;4.90;99.90;;;;;;4993227;28;20111;-85
2022/04/02 10:11:30;;;;;;;1.77;0.50;;;4.90;99.90;;;;;;5016242;28;20410;-75
2022/04/02 10:14:01;;;;;;;1.92;0.50;;;4.80;99.90;;;;;;5015624;28;20100;-79
2022/04/02 10:16:28;;;;;;;1.23;0.47;;;4.80;99.90;;;;;;5015471;28;20467;-77
2022/04/02 10:19:06;;;;;;;1.55;0.50;;;4.90;99.90;;;;;;5013541;28;20088;-83
2022/04/02 10:21:35;;;;;;;1.25;0.50;;;5.00;99.90;;;;;;5015303;28;20085;-85
2022/04/02 10:24:11;;;;;;;2.42;0.80;;;5.10;99.90;;;;;;5014924;28;20096;-86
2022/04/02 10:26:39;;;;;;;1.30;0.40;;;5.30;99.90;;;;;;5016064;28;20109;-85
2022/04/02 10:29:13;;;;;;;0.32;0.30;;;5.50;98.90;;;;;;5015619;28;20046;-83
2022/04/02 10:31:59;;;;;;;0.82;0.40;;;5.70;97.50;;;;;;5015382;28;20085;-84
2022/04/02 10:34:24;;;;;;;3.38;0.40;;;5.70;92.20;;;;;;5015501;28;20378;-85
2022/04/02 10:37:00;;;;;;;1.05;0.40;;;5.70;91.70;;;;;;5015559;28;20046;-82
2022/04/02 10:39:28;;;;;;;0.90;0.50;;;5.70;92.80;;;;;;5015390;28;20054;-80
2022/04/02 10:42:00;;;;;;;2.05;0.40;;;5.60;94.20;;;;;;5015940;28;20057;-80
2022/04/02 10:44:47;;;;;;;1.08;0.50;;;5.40;94.70;;;;;;5015267;28;20112;-85
2022/04/02 10:47:17;;;;;;;2.45;0.50;;;5.40;94.70;;;;;;5015339;28;20042;-81
2022/04/02 10:49:47;;;;;;;1.45;0.50;;;5.30;95.50;;;;;;5015517;28;20513;-81
2022/04/02 10:52:15;;;;;;;2.22;0.50;;;5.10;96.00;;;;;;5015336;28;20053;-83
2022/04/02 10:54:48;;;;;;;2.08;0.50;;;5.30;96.50;;;;;;5015225;28;20073;-82
2022/04/02 10:57:15;;;;;;;1.65;0.50;;;5.20;96.60;;;;;;5014980;28;20081;-77
2022/04/02 10:59:46;;;;;;;0.75;0.30;;;5.20;96.50;;;;;;5014953;28;20097;-83
2022/04/02 11:02:22;;;;;;;2.53;0.55;;;5.20;95.40;;;;;;5015500;28;20057;-81
2022/04/02 11:05:03;;;;;;;1.23;0.60;;;5.20;95.50;;;;;;5015155;28;20049;-81
2022/04/02 11:07:31;;;;;;;2.05;0.38;;;5.20;94.70;;;;;;5014439;28;20057;-81
2022/04/02 11:10:01;;;;;;;0.93;0.50;;;5.30;95.80;;;;;;5014033;28;20050;-80
2022/04/02 11:12:29;;;;;;;0.40;0.30;;;5.40;96.10;;;;;;5013866;28;20511;-82
2022/04/02 11:15:24;;;;;;;2.15;0.60;;;5.50;94.70;;;;;;5013440;28;20045;-79
2022/04/02 11:17:56;;;;;;;1.10;0.40;;;5.40;94.30;;;;;;5015182;28;20034;-78
2022/04/02 11:20:27;;;;;;;1.50;0.50;;;5.40;94.10;;;;;;5014725;28;20123;-84
2022/04/02 11:22:54;;;;;;;0.75;0.40;;;5.30;92.90;;;;;;5016247;28;20176;-82
2022/04/02 11:25:32;;;;;;;1.27;0.50;;;5.30;93.40;;;;;;5015675;28;20391;-83
2022/04/02 11:28:12;;;;;;;1.95;0.63;;;5.40;93.70;;;;;;4998822;28;20041;-85
2022/04/02 11:30:41;;;;;;;1.77;0.60;;;5.30;94.30;;;;;;5014355;28;20085;-84
2022/04/02 11:33:18;;;;;;;6.85;0.68;;;5.30;94.30;;;;;;5015242;28;20049;-83
2022/04/02 11:35:55;;;;;;;2.05;0.50;;;5.30;94.70;;;;;;4998225;28;20042;-83
2022/04/02 11:38:22;;;;;;;1.77;0.40;;;5.20;94.20;;;;;;5014038;28;20046;-80
2022/04/02 11:41:22;;;;;;;3.10;0.50;;;5.50;93.30;;;;;;5014982;28;20072;-84
2022/04/02 11:43:51;;;;;;;1.85;0.70;;;5.20;93.40;;;;;;5014308;28;20052;-81
2022/04/02 11:46:18;;;;;;;1.70;0.50;;;5.40;93.40;;;;;;5015499;28;20045;-83
2022/04/02 11:48:56;;;;;;;1.75;0.50;;;6.50;93.90;;;;;;5013862;28;20042;-82
2022/04/02 11:51:31;;;;;;;0.85;0.50;;;5.30;94.40;;;;;;4998477;28;20137;-83
2022/04/02 11:54:03;;;;;;;2.30;0.50;;;5.40;93.50;;;;;;5014462;28;20049;-86
2022/04/02 11:56:35;;;;;;;1.40;0.47;;;5.60;92.80;;;;;;4997579;28;20046;-87
2022/04/02 11:59:05;;;;;;;1.35;0.57;;;5.50;93.30;;;;;;5016295;28;20520;-87
2022/04/02 12:01:41;;;;;;;3.42;0.70;;;5.50;93.80;;;;;;5017799;28;20053;-88
2022/04/02 12:04:13;;;;;;;1.23;0.50;;;5.90;93.50;;;;;;5014858;28;20054;-86
2022/04/02 12:06:49;;;;;;;2.60;1.07;;;5.60;92.50;;;;;;5013993;28;20066;-85
2022/04/02 12:09:18;;;;;;;1.65;0.90;;;5.60;92.50;;;;;;5014091;28;20761;-84
2022/04/02 12:12:03;;;;;;;2.47;0.70;;;5.60;92.70;;;;;;5014644;28;20089;-88
2022/04/02 12:14:41;;;;;;;1.48;0.60;;;5.70;91.30;;;;;;5014612;28;20061;-84
2022/04/02 12:17:12;;;;;;;1.27;0.50;;;5.70;91.90;;;;;;4997892;28;20054;-86
2022/04/02 12:19:55;;;;;;;1.30;0.50;;;5.90;92.20;;;;;;5015320;28;20347;-87
2022/04/02 12:22:30;;;;;;;1.20;0.50;;;6.10;87.80;;;;;;5014978;28;20050;-84
2022/04/02 12:25:13;;;;;;;3.70;0.47;;;6.40;85.20;;;;;;5014697;28;20097;-86
2022/04/02 12:27:49;;;;;;;3.53;0.68;;;6.20;83.90;;;;;;5014588;28;20085;-86
2022/04/02 12:30:23;;;;;;;1.42;0.70;;;6.20;83.50;;;;;;5014365;28;20093;-88
2022/04/02 12:32:50;;;;;;;1.52;0.70;;;6.20;85.10;;;;;;5013630;28;20046;-86
2022/04/02 12:35:26;;;;;;;1.45;0.40;;;6.10;85.90;;;;;;5013191;28;20133;-87
2022/04/02 12:37:54;;;;;;;2.55;0.50;;;6.10;87.20;;;;;;5014265;28;20045;-86
2022/04/02 12:40:24;;;;;;;1.42;0.40;;;6.10;85.00;;;;;;5013924;28;20087;-87
2022/04/02 12:43:00;;;;;;;1.42;0.40;;;6.10;86.00;;;;;;5015768;28;20041;-88
2022/04/02 12:45:28;;;;;;;2.72;0.88;;;6.00;86.20;;;;;;5014779;28;20049;-83
2022/04/02 12:48:06;;;;;;;0.68;0.40;;;6.00;82.90;;;;;;5014109;28;20108;-84
2022/04/02 12:50:38;;;;;;;0.85;0.40;;;6.00;82.40;;;;;;5014063;28;20382;-85
2022/04/02 12:53:04;;;;;;;0.52;0.40;;;6.40;82.50;;;;;;5013004;28;20038;-85
2022/04/02 12:55:32;;;;;;;1.13;0.50;;;6.00;81.30;;;;;;5014029;28;20045;-84
2022/04/02 12:58:03;;;;;;;1.58;0.50;;;6.90;83.10;;;;;;5013880;28;20172;-84
2022/04/02 13:00:44;;;;;;;1.85;0.60;;;6.00;82.70;;;;;;5014002;28;20062;-76
2022/04/02 13:03:10;;;;;;;1.30;0.40;;;5.90;82.10;;;;;;5013793;28;20053;-77
2022/04/02 13:05:45;;;;;;;2.13;0.50;;;5.90;80.00;;;;;;5012935;28;20137;-76
2022/04/02 13:08:26;;;;;;;0.60;0.43;;;6.00;79.00;;;;;;5014680;28;20057;-76
2022/04/02 13:10:54;;;;;;;1.13;0.45;;;6.00;79.00;;;;;;4996573;28;20049;-76
2022/04/02 13:13:41;;;;;;;0.80;0.40;;;5.90;80.10;;;;;;5013783;28;20042;-74
2022/04/02 13:16:09;;;;;;;0.90;0.43;;;5.90;81.00;;;;;;5013659;28;20050;-75